createdAt,value
2018-04-15T00:02:15.396Z,15.30
2018-04-15T00:04:43.030Z,15.15
2018-04-15T00:07:10.704Z,15.09
2018-04-15T00:09:38.339Z,15.15
2018-04-15T00:12:06.036Z,15.25
2018-04-15T00:14:33.683Z,15.33
2018-04-15T00:17:01.335Z,15.35
2018-04-15T00:19:28.956Z,15.35
2018-04-15T00:21:56.624Z,15.31
2018-04-15T00:24:24.258Z,15.27
2018-04-15T00:26:51.939Z,15.21
2018-04-15T00:29:19.590Z,15.08
2018-04-15T00:31:47.278Z,14.94
2018-04-15T00:34:14.903Z,14.91
2018-04-15T00:36:42.580Z,14.92
2018-04-15T00:39:10.198Z,15.03
2018-04-15T00:41:37.855Z,15.08
2018-04-15T00:44:05.520Z,15.12
2018-04-15T00:46:33.149Z,15.16
2018-04-15T00:49:00.807Z,15.18
2018-04-15T00:51:28.445Z,15.10
2018-04-15T00:54:07.887Z,14.99
2018-04-15T00:56:35.570Z,15.10
2018-04-15T00:59:03.227Z,15.11
2018-04-15T01:01:30.988Z,14.97
2018-04-15T01:03:58.664Z,15.02
2018-04-15T01:06:26.290Z,15.12
2018-04-15T01:08:53.969Z,15.13
2018-04-15T01:11:21.590Z,15.22
2018-04-15T01:13:49.241Z,15.32
2018-04-15T01:16:16.892Z,15.34
2018-04-15T01:18:44.550Z,15.35
2018-04-15T01:21:12.168Z,15.31
2018-04-15T01:23:39.844Z,15.32
2018-04-15T01:26:07.460Z,15.29
2018-04-15T01:28:35.139Z,15.24
2018-04-15T01:31:02.779Z,15.32
2018-04-15T01:33:30.459Z,15.31
2018-04-15T01:35:58.079Z,15.34
2018-04-15T01:38:25.759Z,15.31
2018-04-15T01:40:53.411Z,15.32
2018-04-15T01:43:21.077Z,15.33
2018-04-15T01:45:48.710Z,15.30
2018-04-15T01:48:16.399Z,15.28
2018-04-15T01:50:44.037Z,15.32
2018-04-15T01:53:11.726Z,15.28
2018-04-15T01:55:39.367Z,15.26
2018-04-15T01:58:07.043Z,15.31
2018-04-15T02:00:34.674Z,15.31
2018-04-15T02:03:02.300Z,15.15
2018-04-15T02:05:29.996Z,15.10
2018-04-15T02:07:57.630Z,15.13
2018-04-15T02:10:25.297Z,15.04
2018-04-15T02:12:52.928Z,15.02
2018-04-15T02:15:20.594Z,15.06
2018-04-15T02:17:48.218Z,15.07
2018-04-15T02:20:15.884Z,15.09
2018-04-15T02:22:43.531Z,15.11
2018-04-15T02:25:11.198Z,15.05
2018-04-15T02:27:38.825Z,15.02
2018-04-15T02:30:06.489Z,14.98
2018-04-15T02:32:34.109Z,14.85
2018-04-15T02:35:01.816Z,14.97
2018-04-15T02:37:29.429Z,14.91
2018-04-15T02:39:57.149Z,14.79
2018-04-15T02:42:24.790Z,14.90
2018-04-15T02:44:52.487Z,14.83
2018-04-15T02:47:20.106Z,14.69
2018-04-15T02:49:47.775Z,14.79
2018-04-15T02:52:15.416Z,14.68
2018-04-15T02:54:43.094Z,14.69
2018-04-15T02:57:10.746Z,14.57
2018-04-15T02:59:38.410Z,14.55
2018-04-15T03:02:06.058Z,14.43
2018-04-15T03:04:33.710Z,14.53
2018-04-15T03:07:01.373Z,14.47
2018-04-15T03:09:29.019Z,14.45
2018-04-15T03:11:56.629Z,14.35
2018-04-15T03:14:24.316Z,14.21
2018-04-15T03:16:51.928Z,14.37
2018-04-15T03:19:19.647Z,14.21
2018-04-15T03:21:47.272Z,14.27
2018-04-15T03:24:14.939Z,14.29
2018-04-15T03:26:42.567Z,14.29
2018-04-15T03:29:10.223Z,14.38
2018-04-15T03:31:37.854Z,14.37
2018-04-15T03:34:05.554Z,14.12
2018-04-15T03:36:33.179Z,14.12
2018-04-15T03:39:00.842Z,13.93
2018-04-15T03:41:28.495Z,14.00
2018-04-15T03:43:56.198Z,14.29
2018-04-15T03:46:23.830Z,14.13
2018-04-15T03:48:51.552Z,14.02
2018-04-15T03:51:19.189Z,14.10
2018-04-15T03:53:46.920Z,14.19
2018-04-15T03:56:14.533Z,14.19
2018-04-15T03:58:42.250Z,14.27
2018-04-15T04:01:09.890Z,14.12
2018-04-15T04:03:37.553Z,14.01
2018-04-15T04:06:05.188Z,13.94
2018-04-15T04:08:32.839Z,13.86
2018-04-15T04:11:00.505Z,13.99
2018-04-15T04:13:28.171Z,14.10
2018-04-15T04:15:55.862Z,14.10
2018-04-15T04:18:35.414Z,14.12
2018-04-15T04:21:14.793Z,13.98
2018-04-15T04:23:54.151Z,14.07
2018-04-15T04:26:22.708Z,14.15
2018-04-15T04:28:50.378Z,14.21
2018-04-15T04:31:18.119Z,14.06
2018-04-15T04:33:45.760Z,14.15
2018-04-15T04:36:13.441Z,14.07
2018-04-15T04:38:41.078Z,14.08
2018-04-15T04:41:08.740Z,14.01
2018-04-15T04:43:36.359Z,14.02
2018-04-15T04:46:04.054Z,13.97
2018-04-15T04:48:31.675Z,13.98
2018-04-15T04:50:59.330Z,13.82
2018-04-15T04:53:26.966Z,13.78
2018-04-15T04:55:54.631Z,13.77
2018-04-15T04:58:22.284Z,13.80
2018-04-15T05:00:49.956Z,13.81
2018-04-15T05:03:17.611Z,13.79
2018-04-15T05:05:45.289Z,13.71
2018-04-15T05:08:12.907Z,13.81
2018-04-15T05:10:40.599Z,13.76
2018-04-15T05:13:08.292Z,13.77
2018-04-15T05:15:35.947Z,13.73
2018-04-15T05:18:03.572Z,13.64
2018-04-15T05:20:31.231Z,13.63
2018-04-15T05:22:58.847Z,13.69
2018-04-15T05:25:26.494Z,13.69
2018-04-15T05:27:54.106Z,13.55
2018-04-15T05:30:21.787Z,13.51
2018-04-15T05:32:49.413Z,13.54
2018-04-15T05:35:17.080Z,13.50
2018-04-15T05:37:44.743Z,13.49
2018-04-15T05:40:12.422Z,13.49
2018-04-15T05:42:40.052Z,13.45
2018-04-15T05:45:07.721Z,13.54
2018-04-15T05:47:35.399Z,13.51
2018-04-15T05:50:03.116Z,13.47
2018-04-15T05:52:30.738Z,13.39
2018-04-15T05:54:58.394Z,13.59
2018-04-15T05:57:26.003Z,13.70
2018-04-15T05:59:53.662Z,13.63
2018-04-15T06:02:21.294Z,13.70
2018-04-15T06:04:49.002Z,13.63
2018-04-15T06:07:16.655Z,13.68
2018-04-15T06:09:44.313Z,13.84
2018-04-15T06:12:11.989Z,13.91
2018-04-15T06:14:39.658Z,13.84
2018-04-15T06:17:07.305Z,13.96
2018-04-15T06:19:34.986Z,13.88
2018-04-15T06:22:02.630Z,13.95
2018-04-15T06:24:30.276Z,13.89
2018-04-15T06:26:58.010Z,14.00
2018-04-15T06:29:25.638Z,13.99
2018-04-15T06:31:53.311Z,14.23
2018-04-15T06:34:20.923Z,14.03
2018-04-15T06:36:48.607Z,14.15
2018-04-15T06:39:16.251Z,14.25
2018-04-15T06:41:44.635Z,14.35
2018-04-15T06:44:12.298Z,14.41
2018-04-15T06:46:39.946Z,14.48
2018-04-15T06:49:07.560Z,14.49
2018-04-15T06:51:35.290Z,14.52
2018-04-15T06:54:02.898Z,14.63
2018-04-15T06:56:30.560Z,14.67
2018-04-15T06:58:58.181Z,14.91
2018-04-15T07:01:25.840Z,14.88
2018-04-15T07:03:53.470Z,14.82
2018-04-15T07:06:21.146Z,14.89
2018-04-15T07:08:48.759Z,15.27
2018-04-15T07:11:16.430Z,15.24
2018-04-15T07:13:44.084Z,15.36
2018-04-15T07:16:11.766Z,15.42
2018-04-15T07:18:39.742Z,15.47
2018-04-15T07:21:07.407Z,15.67
2018-04-15T07:23:35.034Z,15.93
2018-04-15T07:26:02.701Z,15.83
2018-04-15T07:28:30.665Z,16.37
2018-04-15T07:30:58.329Z,16.60
2018-04-15T07:33:25.933Z,16.91
2018-04-15T07:35:53.631Z,16.92
2018-04-15T07:38:21.304Z,17.31
2018-04-15T07:40:48.964Z,16.94
2018-04-15T07:43:16.595Z,16.73
2018-04-15T07:45:44.281Z,17.72
2018-04-15T07:48:11.891Z,19.79
2018-04-15T07:50:39.570Z,21.32
2018-04-15T07:53:07.398Z,21.53
2018-04-15T07:55:35.061Z,22.65
2018-04-15T07:58:02.707Z,21.59
2018-04-15T08:00:30.387Z,21.69
2018-04-15T08:02:58.008Z,23.54
2018-04-15T08:05:25.658Z,22.70
2018-04-15T08:07:54.220Z,22.22
2018-04-15T08:10:21.870Z,22.27
2018-04-15T08:12:49.750Z,21.20
2018-04-15T08:15:17.418Z,21.19
2018-04-15T08:17:45.040Z,20.12
2018-04-15T08:20:12.742Z,19.72
2018-04-15T08:22:40.482Z,19.13
2018-04-15T08:25:08.113Z,18.68
2018-04-15T08:27:35.818Z,18.39
2018-04-15T08:30:03.446Z,19.02
2018-04-15T08:32:31.186Z,19.01
2018-04-15T08:34:58.887Z,19.04
2018-04-15T08:37:26.836Z,18.96
2018-04-15T08:39:55.018Z,18.92
2018-04-15T08:42:22.729Z,19.07
2018-04-15T08:44:50.340Z,19.37
2018-04-15T08:47:18.005Z,19.14
2018-04-15T08:49:45.621Z,18.99
2018-04-15T08:52:13.314Z,19.71
2018-04-15T08:54:40.939Z,19.01
2018-04-15T08:57:08.983Z,19.22
2018-04-15T08:59:36.954Z,19.17
2018-04-15T09:02:05.037Z,19.55
2018-04-15T09:04:33.003Z,19.26
2018-04-15T09:07:01.015Z,19.73
2018-04-15T09:09:28.851Z,19.89
2018-04-15T09:11:56.503Z,20.54
2018-04-15T09:14:24.140Z,20.05
2018-04-15T09:16:51.843Z,20.64
2018-04-15T09:19:19.452Z,20.52
2018-04-15T09:21:47.068Z,20.86
2018-04-15T09:24:14.725Z,20.63
2018-04-15T09:26:42.339Z,20.65
2018-04-15T09:29:10.010Z,20.55
2018-04-15T09:31:37.624Z,20.46
2018-04-15T09:34:05.290Z,21.04
2018-04-15T09:36:32.919Z,21.94
2018-04-15T09:39:00.608Z,22.27
2018-04-15T09:41:28.242Z,22.37
2018-04-15T09:43:55.938Z,23.21
2018-04-15T09:48:57.341Z,21.87
2018-04-15T09:51:24.976Z,21.68
2018-04-15T09:53:52.635Z,21.53
2018-04-15T09:56:20.255Z,22.22
2018-04-15T09:58:47.925Z,22.47
2018-04-15T10:01:17.407Z,22.49
2018-04-15T10:03:45.069Z,22.21
2018-04-15T10:06:12.694Z,22.52
2018-04-15T10:08:40.372Z,22.64
2018-04-15T10:11:08.039Z,23.37
2018-04-15T10:13:35.657Z,23.08
2018-04-15T10:16:03.308Z,22.49
2018-04-15T10:18:31.013Z,22.88
2018-04-15T10:20:58.681Z,22.74
2018-04-15T10:23:26.308Z,22.50
2018-04-15T10:25:53.982Z,22.10
2018-04-15T10:28:21.610Z,22.92
2018-04-15T10:30:49.804Z,21.48
2018-04-15T10:33:17.437Z,21.67
2018-04-15T10:35:45.090Z,22.54
2018-04-15T10:38:12.724Z,23.37
2018-04-15T10:40:40.383Z,24.11
2018-04-15T10:43:08.015Z,23.73
2018-04-15T10:45:35.669Z,23.63
2018-04-15T10:48:03.301Z,23.99
2018-04-15T10:50:30.980Z,23.53
2018-04-15T10:52:58.601Z,23.64
2018-04-15T10:55:26.276Z,24.24
2018-04-15T10:57:53.900Z,24.29
2018-04-15T11:00:21.563Z,25.24
2018-04-15T11:02:49.181Z,25.08
2018-04-15T11:05:16.791Z,22.71
2018-04-15T11:07:44.489Z,21.97
2018-04-15T11:10:12.107Z,21.75
2018-04-15T11:12:39.770Z,22.38
2018-04-15T11:15:07.402Z,23.22
2018-04-15T11:17:35.058Z,23.07
2018-04-15T11:20:02.726Z,22.77
2018-04-15T11:22:30.359Z,22.89
2018-04-15T11:24:57.982Z,23.09
2018-04-15T11:27:25.650Z,23.91
2018-04-15T11:29:53.273Z,25.00
2018-04-15T11:32:20.929Z,25.91
2018-04-15T11:34:48.593Z,25.31
2018-04-15T11:37:16.243Z,25.55
2018-04-15T11:39:43.876Z,26.04
2018-04-15T11:42:11.535Z,27.27
2018-04-15T11:44:39.211Z,25.19
2018-04-15T11:47:06.881Z,23.91
2018-04-15T11:49:34.521Z,23.20
2018-04-15T11:52:02.171Z,24.42
2018-04-15T11:54:29.792Z,24.91
2018-04-15T11:56:57.444Z,24.50
2018-04-15T11:59:25.068Z,25.30
2018-04-15T12:01:52.739Z,25.57
2018-04-15T12:04:20.370Z,24.47
2018-04-15T12:06:48.066Z,25.07
2018-04-15T12:09:15.735Z,24.14
2018-04-15T12:11:43.414Z,24.56
2018-04-15T12:14:11.046Z,25.70
2018-04-15T12:16:38.703Z,25.84
2018-04-15T12:19:06.331Z,26.43
2018-04-15T12:21:33.981Z,27.15
2018-04-15T12:24:01.586Z,27.71
2018-04-15T12:26:29.249Z,27.18
2018-04-15T12:28:56.872Z,27.11
2018-04-15T12:31:24.524Z,26.72
2018-04-15T12:33:52.226Z,26.76
2018-04-15T12:36:19.855Z,26.83
2018-04-15T12:38:47.462Z,26.23
2018-04-15T12:41:15.107Z,26.25
2018-04-15T12:43:42.707Z,26.22
2018-04-15T12:46:10.373Z,26.57
2018-04-15T12:48:38.007Z,26.26
2018-04-15T12:51:05.671Z,26.91
2018-04-15T12:53:33.297Z,25.72
2018-04-15T12:56:00.915Z,25.99
2018-04-15T12:58:28.581Z,27.00
2018-04-15T13:00:56.198Z,27.19
2018-04-15T13:03:23.845Z,27.24
2018-04-15T13:05:51.461Z,27.86
2018-04-15T13:08:19.112Z,27.09
2018-04-15T13:10:46.732Z,25.73
2018-04-15T13:13:14.375Z,25.92
2018-04-15T13:15:41.984Z,26.11
2018-04-15T13:18:09.643Z,26.84
2018-04-15T13:20:37.260Z,26.77
2018-04-15T13:23:04.920Z,26.24
2018-04-15T13:25:32.573Z,26.72
2018-04-15T13:28:00.214Z,27.02
2018-04-15T13:30:27.825Z,27.36
2018-04-15T13:32:55.480Z,26.69
2018-04-15T13:35:23.086Z,26.09
2018-04-15T13:37:50.746Z,25.91
2018-04-15T13:40:18.386Z,25.74
2018-04-15T13:42:46.047Z,25.63
2018-04-15T13:45:13.665Z,25.36
2018-04-15T13:47:41.328Z,23.54
2018-04-15T13:50:08.969Z,23.97
2018-04-15T13:52:36.625Z,23.72
2018-04-15T13:55:04.246Z,23.68
2018-04-15T13:57:31.907Z,23.49
2018-04-15T13:59:59.542Z,23.90
2018-04-15T14:02:27.204Z,23.55
2018-04-15T14:04:54.822Z,23.68
2018-04-15T14:07:22.462Z,23.83
2018-04-15T14:09:50.142Z,23.69
2018-04-15T14:12:17.797Z,23.61
2018-04-15T14:14:45.439Z,23.49
2018-04-15T14:17:13.096Z,23.71
2018-04-15T14:19:40.720Z,23.60
2018-04-15T14:22:08.440Z,23.99
2018-04-15T14:27:09.922Z,24.73
2018-04-15T14:29:37.587Z,24.33
2018-04-15T14:32:05.235Z,24.55
2018-04-15T14:34:32.897Z,24.45
2018-04-15T14:37:00.567Z,24.40
2018-04-15T14:39:28.221Z,24.08
2018-04-15T14:41:55.903Z,24.30
2018-04-15T14:44:23.563Z,24.74
2018-04-15T14:46:51.262Z,25.10
2018-04-15T14:49:18.861Z,24.80
2018-04-15T14:51:46.518Z,25.36
2018-04-15T14:54:14.147Z,25.78
2018-04-15T14:56:41.824Z,25.69
2018-04-15T14:59:09.874Z,24.96
2018-04-15T15:01:38.206Z,25.02
2018-04-15T15:04:06.163Z,25.56
2018-04-15T15:06:33.860Z,25.53
2018-04-15T15:09:01.539Z,25.05
2018-04-15T15:11:29.198Z,25.15
2018-04-15T15:13:56.983Z,25.42
2018-04-15T15:16:24.602Z,25.09
2018-04-15T15:18:52.250Z,24.63
2018-04-15T15:21:19.871Z,24.09
2018-04-15T15:23:47.535Z,24.00
2018-04-15T15:26:15.148Z,24.47
2018-04-15T15:28:42.849Z,24.63
2018-04-15T15:31:10.460Z,24.73
2018-04-15T15:33:38.118Z,24.78
2018-04-15T15:36:05.750Z,24.81
2018-04-15T15:38:33.400Z,24.82
2018-04-15T15:41:01.026Z,25.12
2018-04-15T15:43:28.784Z,24.89
2018-04-15T15:45:56.395Z,24.72
2018-04-15T15:48:24.055Z,24.24
2018-04-15T15:50:51.679Z,23.98
2018-04-15T15:53:19.377Z,23.29
2018-04-15T15:55:46.986Z,23.37
2018-04-15T15:58:14.647Z,23.88
2018-04-15T16:00:42.266Z,24.21
2018-04-15T16:03:09.903Z,24.35
2018-04-15T16:05:37.551Z,24.36
2018-04-15T16:08:05.202Z,24.58
2018-04-15T16:10:32.861Z,24.53
2018-04-15T16:13:00.812Z,24.26
2018-04-15T16:15:28.483Z,24.35
2018-04-15T16:17:56.314Z,24.31
2018-04-15T16:20:23.926Z,24.03
2018-04-15T16:22:51.590Z,23.92
2018-04-15T16:25:19.221Z,23.69
2018-04-15T16:27:46.892Z,23.85
2018-04-15T16:30:14.616Z,23.67
2018-04-15T16:32:42.266Z,23.86
2018-04-15T16:35:11.788Z,23.77
2018-04-15T16:37:39.447Z,23.63
2018-04-15T16:40:07.060Z,23.46
2018-04-15T16:42:34.876Z,23.59
2018-04-15T16:45:02.457Z,23.41
2018-04-15T16:47:30.158Z,23.64
2018-04-15T16:49:57.818Z,23.49
2018-04-15T16:52:25.502Z,23.59
2018-04-15T16:54:53.123Z,23.59
2018-04-15T16:57:20.798Z,23.55
2018-04-15T16:59:48.439Z,23.55
2018-04-15T17:02:16.091Z,23.48
2018-04-15T17:04:43.712Z,23.41
2018-04-15T17:07:11.607Z,23.41
2018-04-15T17:09:39.255Z,23.44
2018-04-15T17:12:06.922Z,23.61
2018-04-15T17:14:34.564Z,23.27
2018-04-15T17:17:02.568Z,22.92
2018-04-15T17:19:30.291Z,22.79
2018-04-15T17:21:57.957Z,22.63
2018-04-15T17:24:25.702Z,21.97
2018-04-15T17:26:53.394Z,22.18
2018-04-15T17:29:21.052Z,22.43
2018-04-15T17:31:48.666Z,22.50
2018-04-15T17:34:16.337Z,22.62
2018-04-15T17:36:43.973Z,21.76
2018-04-15T17:39:11.626Z,21.86
2018-04-15T17:41:39.259Z,22.05
2018-04-15T17:44:06.906Z,22.22
2018-04-15T17:46:34.547Z,22.03
2018-04-15T17:49:02.217Z,21.61
2018-04-15T17:51:29.828Z,21.63
2018-04-15T17:53:57.475Z,21.42
2018-04-15T17:56:25.088Z,21.49
2018-04-15T17:58:52.794Z,21.27
2018-04-15T18:01:20.411Z,21.22
2018-04-15T18:03:48.105Z,21.02
2018-04-15T18:06:15.739Z,20.92
2018-04-15T18:08:43.405Z,20.73
2018-04-15T18:11:11.048Z,20.47
2018-04-15T18:13:38.721Z,20.54
2018-04-15T18:16:06.335Z,20.12
2018-04-15T18:18:34.068Z,20.26
2018-04-15T18:21:01.687Z,20.17
2018-04-15T18:23:29.510Z,20.17
2018-04-15T18:25:57.146Z,20.07
2018-04-15T18:28:24.785Z,20.04
2018-04-15T18:30:52.419Z,20.07
2018-04-15T18:33:20.079Z,19.85
2018-04-15T18:35:47.759Z,19.95
2018-04-15T18:38:15.416Z,19.74
2018-04-15T18:40:43.030Z,19.74
2018-04-15T18:43:10.687Z,19.84
2018-04-15T18:45:38.354Z,19.83
2018-04-15T18:48:06.033Z,19.95
2018-04-15T18:50:33.772Z,19.94
2018-04-15T18:53:01.379Z,20.02
2018-04-15T18:55:29.040Z,20.02
2018-04-15T18:57:59.890Z,20.08
2018-04-15T19:00:27.607Z,20.07
2018-04-15T19:02:55.291Z,19.97
2018-04-15T19:05:22.963Z,20.09
2018-04-15T19:07:52.279Z,20.10
2018-04-15T19:10:20.290Z,19.95
2018-04-15T19:12:47.910Z,19.40
2018-04-15T19:15:15.668Z,19.11
2018-04-15T19:17:43.333Z,18.43
2018-04-15T19:20:11.052Z,18.09
2018-04-15T19:22:38.683Z,18.31
2018-04-15T19:25:06.337Z,18.25
2018-04-15T19:27:33.959Z,18.47
2018-04-15T19:30:01.645Z,18.28
2018-04-15T19:32:29.277Z,18.32
2018-04-15T19:34:56.944Z,18.53
2018-04-15T19:37:24.558Z,18.41
2018-04-15T19:39:52.229Z,18.56
2018-04-15T19:42:20.236Z,18.36
2018-04-15T19:44:47.891Z,18.45
2018-04-15T19:47:15.609Z,18.53
2018-04-15T19:49:43.214Z,18.50
2018-04-15T19:52:11.367Z,18.05
2018-04-15T19:54:38.986Z,17.93
2018-04-15T19:57:06.660Z,17.86
2018-04-15T19:59:34.278Z,17.96
2018-04-15T20:02:01.928Z,18.01
2018-04-15T20:04:29.544Z,18.14
2018-04-15T20:06:57.214Z,18.23
2018-04-15T20:09:24.817Z,18.23
2018-04-15T20:11:52.478Z,17.81
2018-04-15T20:14:20.136Z,17.97
2018-04-15T20:16:47.860Z,18.13
2018-04-15T20:19:15.503Z,17.80
2018-04-15T20:21:43.203Z,17.24
2018-04-15T20:24:10.884Z,17.03
2018-04-15T20:26:38.540Z,17.23
2018-04-15T20:29:06.169Z,16.90
2018-04-15T20:31:33.838Z,16.75
2018-04-15T20:34:01.459Z,16.88
2018-04-15T20:36:29.324Z,16.61
2018-04-15T20:39:00.099Z,17.02
2018-04-15T20:41:27.812Z,17.13
2018-04-15T20:43:55.490Z,17.30
2018-04-15T20:46:23.108Z,17.44
2018-04-15T20:48:50.770Z,17.46
2018-04-15T20:51:18.440Z,17.61
2018-04-15T20:53:46.109Z,17.65
2018-04-15T20:56:13.759Z,17.44
2018-04-15T20:58:41.446Z,17.28
2018-04-15T21:01:09.117Z,17.40
2018-04-15T21:03:36.817Z,17.59
2018-04-15T21:06:04.631Z,17.69
2018-04-15T21:08:32.295Z,17.64
2018-04-15T21:10:59.907Z,17.76
2018-04-15T21:13:27.591Z,17.75
2018-04-15T21:15:55.212Z,17.72
2018-04-15T21:18:22.872Z,17.68
2018-04-15T21:20:50.500Z,17.63
2018-04-15T21:23:18.184Z,17.46
2018-04-15T21:25:45.784Z,17.54
2018-04-15T21:28:13.431Z,17.46
2018-04-15T21:30:41.058Z,17.58
2018-04-15T21:33:08.736Z,17.58
2018-04-15T21:35:36.431Z,17.62
2018-04-15T21:38:04.051Z,17.61
2018-04-15T21:40:31.752Z,17.52
2018-04-15T21:42:59.391Z,17.19
2018-04-15T21:45:27.030Z,17.03
2018-04-15T21:47:54.688Z,17.19
2018-04-15T21:50:22.406Z,17.27
2018-04-15T21:52:50.080Z,17.23
2018-04-15T21:55:17.742Z,17.32
2018-04-15T21:57:45.346Z,17.33
2018-04-15T22:00:13.050Z,17.32
2018-04-15T22:02:40.711Z,17.29
2018-04-15T22:05:08.410Z,16.99
2018-04-15T22:07:36.046Z,17.07
2018-04-15T22:10:03.699Z,17.07
2018-04-15T22:12:31.318Z,17.09
2018-04-15T22:14:58.992Z,17.17
2018-04-15T22:17:26.596Z,17.23
2018-04-15T22:19:54.264Z,17.33
2018-04-15T22:22:21.884Z,17.35
2018-04-15T22:24:49.533Z,17.06
2018-04-15T22:27:17.197Z,16.89
2018-04-15T22:29:44.850Z,16.77
2018-04-15T22:32:12.500Z,16.93
2018-04-15T22:34:40.160Z,17.03
2018-04-15T22:37:07.790Z,16.92
2018-04-15T22:39:35.442Z,16.95
2018-04-15T22:42:03.051Z,16.65
2018-04-15T22:44:30.720Z,16.48
2018-04-15T22:46:58.367Z,16.51
2018-04-15T22:49:26.834Z,16.63
2018-04-15T22:51:54.467Z,16.67
2018-04-15T22:54:22.122Z,16.71
2018-04-15T22:56:49.785Z,16.67
2018-04-15T22:59:17.426Z,16.67
2018-04-15T23:01:58.291Z,16.64
2018-04-15T23:04:25.952Z,16.17
2018-04-15T23:06:53.560Z,16.33
2018-04-15T23:09:21.210Z,16.42
2018-04-15T23:11:48.820Z,16.41
2018-04-15T23:14:16.527Z,16.37
2018-04-15T23:16:44.260Z,16.35
2018-04-15T23:19:11.914Z,16.28
2018-04-15T23:21:39.530Z,16.18
2018-04-15T23:24:07.187Z,16.20
2018-04-15T23:26:34.813Z,16.11
2018-04-15T23:29:02.499Z,16.21
2018-04-15T23:31:30.265Z,16.00
2018-04-15T23:33:57.911Z,15.89
2018-04-15T23:36:25.535Z,15.83
2018-04-15T23:38:53.188Z,16.01
2018-04-15T23:41:20.862Z,16.06
2018-04-15T23:43:48.499Z,16.09
2018-04-15T23:46:16.147Z,16.00
2018-04-15T23:48:43.769Z,16.04
2018-04-15T23:51:11.415Z,15.97
2018-04-15T23:53:39.038Z,15.90
2018-04-15T23:56:06.691Z,15.84
2018-04-15T23:58:34.344Z,15.63
